Oakfield, GA (31772)

6:46 AM EST on March 06, 2015 (GMT -0500)
Lyle Farms | Change Station
CLOSE
Current Station
Personal Weather Station
Location: Cobb, GA
Elevation: 285 ft
Nearby Weather Stations

Elev 285 ft 31.98 °N, 83.96 °W | Updated 12 minutes ago

Overcast
Overcast
36.3 °F
Feels Like 32 °F
N
5.0
Wind Variable Wind from East
Gusts 11.0 mph

Today
High -- | Low -- °F
--% Chance of Precip.
Yesterday
High -- | Low -- °F
Precip. -- in
6:57 AM 6:37 PM
Full, 100% visible
Pressure 30.34 in
Visibility 10.0 miles
Clouds Overcast 1400 ft
Windchill 32 °F
Dew Point 32 °F
Humidity 84%
Rainfall in
Snow Depth Not available.
UV 0 out of 12
Pollen 6.30 out of 12
Air Quality Not available.
Flu Activity Not available.
METAR KCKF 061135Z AUTO 02007KT 10SM OVC014 04/01 A3034 RMK AO2 T00400008

More Conditions Fewer Conditions

Pressure 30.34 in
Visibility 10.0 miles
Clouds Overcast 1400 ft
Windchill 32 °F
Dew Point 32 °F
Humidity 84%
Rainfall in
Snow Depth Not available.
UV 0 out of 12
Pollen 6.30 out of 12
Air Quality Not available.
Flu Activity Not available.
METAR KCKF 061135Z AUTO 02007KT 10SM OVC014 04/01 A3034 RMK AO2 T00400008

More Conditions Fewer Conditions

10-Day Weather Forecast

Almanac

Astronomy

Mar. 06, 2015 Rise Set
Actual Time
Civil Twilight
Nautical Twilight
Astronomical Twilight
Moon
Length of Visible Light
Length of Day
Tomorrow will be .
, % of the Moon is Illuminated

Today's Extremes

State Highs State Lows

Community

WunderPhotos

Upload Photos

1,803,228 photos uploaded!

WunderBlogs® & News

Nearby

Air Quality

  Air Quality AQ Index Pollutant
Not available.

Snow Depth

Station Depth Elevation

Earthquake Activity

City Distance Mag. Time & Date
Minimum magnitude displayed is 2.5.

Coastal Water Temperatures

Place Temperature

Nearby Weather Stations